Time;durP1;ratioP1;P1;durP2;ratioP2;P2;SDS_P1;SDS_P2;PMS_P1;PMS_P2;Temp;Humidity;BMP_temperature;BMP_pressure;BME280_temperature;BME280_humidity;BME280_pressure;Samples;Min_cycle;Max_cycle;Signal;HPM_P1;HPM_P2
2023/06/26 00:00:19;;;;;;;10.88;7.60;;;20.50;72.40;;;;;;5022406;28;20104;-72
2023/06/26 00:02:45;;;;;;;11.18;8.10;;;20.50;71.80;;;;;;5022530;28;20083;-72
2023/06/26 00:05:11;;;;;;;11.10;8.27;;;20.50;72.60;;;;;;5022339;28;20034;-72
2023/06/26 00:07:37;;;;;;;11.23;7.80;;;20.40;72.90;;;;;;5015291;28;20104;-72
2023/06/26 00:10:03;;;;;;;11.15;7.93;;;20.20;74.40;;;;;;5022560;28;20133;-72
2023/06/26 00:12:29;;;;;;;11.10;8.45;;;20.00;74.80;;;;;;5020990;28;20087;-72
2023/06/26 00:14:55;;;;;;;10.70;8.02;;;19.90;74.40;;;;;;5022236;28;20026;-72
2023/06/26 00:17:21;;;;;;;12.63;7.72;;;19.80;74.80;;;;;;5020340;28;20033;-72
2023/06/26 00:19:47;;;;;;;13.82;8.43;;;19.80;75.60;;;;;;5018971;28;20491;-72
2023/06/26 00:22:12;;;;;;;11.60;8.75;;;19.70;75.60;;;;;;5019629;28;20022;-72
2023/06/26 00:24:38;;;;;;;9.98;7.60;;;19.60;75.50;;;;;;5003940;28;20038;-72
2023/06/26 00:27:04;;;;;;;10.93;7.90;;;19.60;76.40;;;;;;5020509;28;20026;-72
2023/06/26 00:29:29;;;;;;;11.55;8.05;;;19.40;76.60;;;;;;5022199;28;20026;-72
2023/06/26 00:31:55;;;;;;;12.15;7.95;;;19.40;76.00;;;;;;5022282;28;20040;-72
2023/06/26 00:34:20;;;;;;;12.00;8.57;;;19.40;76.40;;;;;;5019735;28;20438;-72
2023/06/26 00:36:46;;;;;;;11.70;7.88;;;19.40;76.80;;;;;;5019231;28;20109;-72
2023/06/26 00:39:11;;;;;;;10.70;7.82;;;19.30;77.00;;;;;;5020269;28;20030;-72
2023/06/26 00:41:38;;;;;;;10.82;8.32;;;19.30;77.30;;;;;;5021725;28;20050;-72
2023/06/26 00:44:06;;;;;;;11.93;8.43;;;19.20;77.80;;;;;;5021085;28;20053;-72
2023/06/26 00:46:33;;;;;;;11.63;8.30;;;19.10;78.10;;;;;;5022151;28;20032;-71
2023/06/26 00:48:59;;;;;;;12.15;8.05;;;19.10;78.40;;;;;;5021898;28;20022;-71
2023/06/26 00:51:29;;;;;;;11.75;8.40;;;19.00;78.30;;;;;;5019563;28;20029;-72
2023/06/26 00:53:56;;;;;;;12.10;8.00;;;18.90;78.90;;;;;;5018074;28;20040;-72
2023/06/26 00:56:22;;;;;;;13.85;8.75;;;18.90;78.70;;;;;;5019703;28;20029;-72
2023/06/26 00:58:48;;;;;;;11.38;8.13;;;18.90;78.60;;;;;;5002668;28;20022;-73
2023/06/26 01:01:16;;;;;;;10.77;7.95;;;18.80;79.60;;;;;;5018790;28;20032;-72
2023/06/26 01:03:46;;;;;;;12.13;8.25;;;18.80;79.20;;;;;;5015123;28;20018;-72
2023/06/26 01:06:13;;;;;;;11.07;8.02;;;18.80;79.60;;;;;;5013505;28;20030;-72
2023/06/26 01:08:41;;;;;;;11.68;8.02;;;18.70;79.40;;;;;;5016667;28;20124;-72
2023/06/26 01:11:06;;;;;;;10.68;7.88;;;18.70;79.40;;;;;;5018625;28;20103;-72
2023/06/26 01:13:34;;;;;;;12.05;8.48;;;18.80;79.00;;;;;;5015287;28;20101;-72
2023/06/26 01:16:00;;;;;;;12.98;8.82;;;18.80;79.60;;;;;;5005244;28;20415;-72
2023/06/26 01:18:26;;;;;;;12.73;8.40;;;18.80;79.80;;;;;;5016057;28;20464;-72
2023/06/26 01:20:53;;;;;;;12.88;8.20;;;18.70;79.10;;;;;;5017205;28;20101;-72
2023/06/26 01:23:36;;;;;;;11.98;7.88;;;18.70;78.90;;;;;;4997902;28;20058;-72
2023/06/26 01:26:08;;;;;;;12.57;8.63;;;18.70;80.20;;;;;;4998849;28;20030;-72
2023/06/26 01:28:39;;;;;;;14.98;8.50;;;18.70;80.30;;;;;;5010579;28;20033;-72
2023/06/26 01:31:06;;;;;;;11.60;8.18;;;18.60;80.10;;;;;;5007413;28;20316;-72
2023/06/26 01:33:32;;;;;;;14.32;8.63;;;18.50;80.80;;;;;;5014838;28;20343;-72
2023/06/26 01:35:58;;;;;;;11.57;8.65;;;18.40;80.80;;;;;;5015470;28;20091;-72
2023/06/26 01:38:23;;;;;;;11.20;8.13;;;18.50;79.90;;;;;;5019372;28;20022;-72
2023/06/26 01:40:50;;;;;;;11.45;8.27;;;18.50;79.70;;;;;;5016837;28;20323;-72
2023/06/26 01:43:26;;;;;;;12.48;8.88;;;18.60;79.80;;;;;;5004539;28;20039;-72
2023/06/26 01:45:58;;;;;;;13.02;8.05;;;18.60;79.90;;;;;;5016612;28;20034;-72
2023/06/26 01:48:28;;;;;;;11.57;8.30;;;18.60;79.30;;;;;;5017012;28;20056;-72
2023/06/26 01:50:58;;;;;;;10.88;7.90;;;18.60;79.60;;;;;;5012766;28;20034;-72
2023/06/26 01:53:38;;;;;;;11.65;8.00;;;18.60;80.20;;;;;;5013891;28;20041;-72
2023/06/26 01:56:13;;;;;;;11.85;8.38;;;18.60;79.60;;;;;;4998174;28;20101;-72
2023/06/26 01:58:45;;;;;;;13.73;8.00;;;18.60;79.90;;;;;;5010624;28;20411;-72
2023/06/26 02:01:14;;;;;;;11.35;7.75;;;18.50;80.40;;;;;;5017932;28;20441;-72
2023/06/26 02:03:40;;;;;;;10.85;7.95;;;18.50;80.40;;;;;;5016857;28;20395;-72
2023/06/26 02:06:05;;;;;;;12.52;8.00;;;18.50;79.80;;;;;;5015843;28;20036;-71
2023/06/26 02:08:31;;;;;;;13.23;8.50;;;18.60;80.20;;;;;;5017523;28;20403;-74
2023/06/26 02:10:57;;;;;;;11.80;7.95;;;18.50;80.20;;;;;;5000326;28;20041;-72
2023/06/26 02:13:22;;;;;;;10.35;7.00;;;18.50;80.40;;;;;;5017508;28;20092;-73
2023/06/26 02:15:48;;;;;;;10.32;7.70;;;18.40;81.00;;;;;;5017407;28;20343;-73
2023/06/26 02:18:13;;;;;;;10.80;7.47;;;18.30;81.40;;;;;;5017656;28;20022;-72
2023/06/26 02:20:39;;;;;;;11.38;7.82;;;18.30;81.80;;;;;;5016492;28;20022;-72
2023/06/26 02:23:05;;;;;;;10.55;7.78;;;18.20;82.10;;;;;;5016200;28;20367;-72
2023/06/26 02:25:30;;;;;;;10.35;7.57;;;18.20;82.30;;;;;;4999772;28;20030;-72
2023/06/26 02:27:56;;;;;;;12.50;7.32;;;18.10;82.50;;;;;;5017191;28;20326;-72
2023/06/26 02:30:22;;;;;;;11.68;7.68;;;18.10;82.60;;;;;;5016839;28;20059;-72
2023/06/26 02:32:47;;;;;;;10.63;7.72;;;18.00;83.30;;;;;;5015724;28;20319;-72
2023/06/26 02:35:13;;;;;;;11.18;7.47;;;18.00;83.70;;;;;;5012531;28;20085;-72
2023/06/26 02:37:38;;;;;;;11.20;7.97;;;17.90;83.50;;;;;;5011071;28;20486;-73
2023/06/26 02:40:05;;;;;;;11.00;7.43;;;17.90;84.00;;;;;;5013578;28;20341;-72
2023/06/26 02:42:31;;;;;;;11.40;7.65;;;17.80;84.10;;;;;;5015882;28;20336;-72
2023/06/26 02:44:57;;;;;;;10.85;7.47;;;17.80;84.10;;;;;;5016032;28;20038;-72
2023/06/26 02:47:22;;;;;;;12.48;8.10;;;17.80;84.30;;;;;;5016484;28;20088;-72
2023/06/26 02:49:48;;;;;;;10.15;7.35;;;17.70;84.90;;;;;;5015606;28;20057;-72
2023/06/26 02:52:13;;;;;;;10.75;7.53;;;17.60;85.70;;;;;;5015129;28;20026;-73
2023/06/26 02:54:39;;;;;;;10.00;7.20;;;17.60;85.80;;;;;;5013355;28;20355;-72
2023/06/26 02:57:05;;;;;;;10.13;7.55;;;17.60;86.30;;;;;;5013996;28;20101;-72
2023/06/26 02:59:30;;;;;;;11.00;7.97;;;17.40;86.70;;;;;;5015758;28;20034;-72
2023/06/26 03:01:56;;;;;;;11.75;7.50;;;17.30;87.10;;;;;;5013088;28;20026;-73
2023/06/26 03:04:21;;;;;;;11.10;8.20;;;17.20;87.70;;;;;;5014360;28;20076;-73
2023/06/26 03:06:47;;;;;;;11.85;7.82;;;17.10;87.90;;;;;;5014301;28;20088;-72
2023/06/26 03:09:13;;;;;;;10.60;7.82;;;17.00;88.20;;;;;;5013506;28;20018;-72
2023/06/26 03:11:38;;;;;;;10.32;7.03;;;16.90;88.70;;;;;;5014696;28;20109;-72
2023/06/26 03:14:04;;;;;;;10.35;7.47;;;16.90;88.90;;;;;;5014796;28;20041;-71
2023/06/26 03:16:29;;;;;;;10.68;7.55;;;16.90;89.10;;;;;;5015425;28;20473;-72
2023/06/26 03:18:55;;;;;;;12.68;7.90;;;16.80;89.40;;;;;;5015682;28;20033;-71
2023/06/26 03:21:20;;;;;;;10.85;7.72;;;16.70;89.70;;;;;;5015351;28;20060;-72
2023/06/26 03:23:46;;;;;;;10.35;7.63;;;16.70;90.00;;;;;;5003613;28;20045;-72
2023/06/26 03:26:14;;;;;;;10.88;7.25;;;16.70;90.10;;;;;;4996736;28;20054;-72
2023/06/26 03:28:40;;;;;;;11.32;7.47;;;16.80;90.00;;;;;;5015484;28;20323;-72
2023/06/26 03:31:05;;;;;;;11.15;8.20;;;16.80;90.10;;;;;;5016459;28;20037;-72
2023/06/26 03:33:31;;;;;;;12.48;8.07;;;16.70;90.50;;;;;;5015296;28;20045;-72
2023/06/26 03:35:56;;;;;;;11.68;8.10;;;16.50;90.80;;;;;;5014114;28;20029;-72
2023/06/26 03:38:23;;;;;;;11.93;8.55;;;16.40;91.40;;;;;;5016240;28;20034;-71
2023/06/26 03:40:49;;;;;;;11.63;8.15;;;16.30;91.80;;;;;;5013946;28;20030;-72
2023/06/26 03:43:15;;;;;;;13.82;7.68;;;16.20;92.40;;;;;;5014459;28;20385;-71
2023/06/26 03:45:43;;;;;;;12.07;8.63;;;16.30;92.70;;;;;;5002042;28;20057;-71
2023/06/26 03:48:08;;;;;;;11.05;7.50;;;16.20;92.70;;;;;;5010104;28;20034;-71
2023/06/26 03:50:37;;;;;;;11.63;7.70;;;16.30;92.40;;;;;;5017647;28;20304;-72
2023/06/26 03:53:02;;;;;;;12.00;8.00;;;16.40;92.60;;;;;;5007591;28;20060;-72
2023/06/26 03:55:28;;;;;;;11.27;7.95;;;16.40;92.70;;;;;;5011145;28;20409;-72
2023/06/26 03:57:53;;;;;;;11.80;7.95;;;16.40;92.40;;;;;;4997988;28;20057;-72
2023/06/26 04:00:19;;;;;;;10.73;8.02;;;16.30;92.50;;;;;;5014178;28;20030;-72
2023/06/26 04:02:44;;;;;;;9.82;7.65;;;16.40;92.80;;;;;;5010339;28;20026;-72
2023/06/26 04:05:10;;;;;;;14.27;8.25;;;16.40;92.90;;;;;;5027555;28;20307;-71
2023/06/26 04:07:37;;;;;;;13.25;8.48;;;16.40;93.20;;;;;;5018617;28;20034;-72
2023/06/26 04:10:03;;;;;;;11.18;8.00;;;16.40;93.20;;;;;;5013141;28;20033;-72
2023/06/26 04:12:29;;;;;;;9.60;7.28;;;16.30;93.50;;;;;;5015322;28;20037;-72
2023/06/26 04:14:54;;;;;;;12.05;7.47;;;16.40;93.30;;;;;;5012459;28;20025;-72
2023/06/26 04:17:22;;;;;;;9.85;7.68;;;16.60;93.00;;;;;;5006679;28;20026;-72
2023/06/26 04:19:48;;;;;;;11.43;7.32;;;16.80;92.50;;;;;;5010961;28;20100;-72
2023/06/26 04:22:13;;;;;;;9.60;6.93;;;16.70;92.60;;;;;;5012433;28;20415;-72
2023/06/26 04:24:39;;;;;;;10.55;7.57;;;16.80;92.10;;;;;;5012319;28;20038;-72
2023/06/26 04:27:05;;;;;;;11.50;7.95;;;16.90;92.00;;;;;;5012866;28;20487;-72
2023/06/26 04:29:31;;;;;;;11.63;8.52;;;16.90;92.30;;;;;;5009683;28;20322;-72
2023/06/26 04:31:59;;;;;;;10.23;7.80;;;16.90;92.30;;;;;;5014629;28;20033;-73
2023/06/26 04:34:26;;;;;;;14.93;8.43;;;17.10;91.90;;;;;;5007028;28;20029;-73
2023/06/26 04:36:55;;;;;;;9.32;7.05;;;17.10;92.00;;;;;;5011718;28;20030;-72
2023/06/26 04:39:20;;;;;;;10.20;6.82;;;17.30;91.40;;;;;;5007032;28;20122;-73
2023/06/26 04:41:46;;;;;;;10.07;7.15;;;17.30;91.50;;;;;;5014900;28;20392;-73
2023/06/26 04:44:12;;;;;;;16.30;7.90;;;17.50;91.20;;;;;;5017401;28;20062;-73
2023/06/26 04:46:41;;;;;;;10.30;7.65;;;17.50;91.40;;;;;;5017986;28;20088;-72
2023/06/26 04:49:10;;;;;;;9.30;7.10;;;17.40;92.00;;;;;;5016370;28;20030;-72
2023/06/26 04:51:40;;;;;;;11.93;7.40;;;17.40;92.10;;;;;;5015927;28;20474;-72
2023/06/26 04:54:10;;;;;;;10.68;7.60;;;17.40;92.20;;;;;;5016889;28;20113;-74
2023/06/26 04:56:39;;;;;;;10.18;7.47;;;17.30;92.40;;;;;;5012562;28;20034;-72
2023/06/26 04:59:05;;;;;;;9.65;6.97;;;17.40;92.40;;;;;;4996201;28;20343;-72
2023/06/26 05:01:32;;;;;;;10.55;7.18;;;17.50;91.90;;;;;;5013999;28;20026;-72
2023/06/26 05:03:58;;;;;;;11.80;7.78;;;17.60;92.20;;;;;;5012849;28;20018;-72
2023/06/26 05:06:23;;;;;;;11.35;7.00;;;17.70;92.40;;;;;;5014070;28;20083;-73
2023/06/26 05:08:49;;;;;;;11.25;6.53;;;17.80;92.00;;;;;;5012126;28;20074;-72
2023/06/26 05:11:15;;;;;;;9.13;6.18;;;18.00;91.50;;;;;;5015461;28;20121;-72
2023/06/26 05:13:41;;;;;;;9.13;6.63;;;18.10;91.00;;;;;;5017707;28;20030;-72
2023/06/26 05:16:08;;;;;;;10.43;7.00;;;18.30;91.10;;;;;;5018619;28;20030;-72
2023/06/26 05:18:34;;;;;;;8.90;6.20;;;18.50;91.10;;;;;;5014678;28;20457;-72
2023/06/26 05:21:03;;;;;;;8.90;6.50;;;18.60;89.20;;;;;;5019403;28;20029;-72
2023/06/26 05:23:33;;;;;;;8.88;6.43;;;18.80;90.70;;;;;;5010945;28;20022;-72
2023/06/26 05:26:02;;;;;;;11.38;6.53;;;18.80;90.30;;;;;;4998845;28;20305;-72
2023/06/26 05:28:30;;;;;;;10.77;7.15;;;19.10;88.30;;;;;;5011767;28;20049;-73
2023/06/26 05:30:57;;;;;;;9.48;6.80;;;19.30;88.40;;;;;;5006765;28;20121;-72
2023/06/26 05:33:24;;;;;;;16.90;10.88;;;19.50;87.10;;;;;;4995732;28;20053;-72
2023/06/26 05:35:52;;;;;;;19.90;12.00;;;19.70;88.50;;;;;;5013022;28;20030;-72
2023/06/26 05:38:19;;;;;;;18.63;11.48;;;19.80;88.60;;;;;;5009142;28;20117;-73
2023/06/26 05:40:45;;;;;;;14.98;10.82;;;19.80;89.00;;;;;;5010003;28;20049;-73
2023/06/26 05:43:10;;;;;;;12.70;8.85;;;19.90;87.80;;;;;;5016239;28;20030;-72
2023/06/26 05:45:36;;;;;;;10.25;8.48;;;20.20;86.30;;;;;;5016779;28;20109;-73
2023/06/26 05:48:02;;;;;;;21.75;9.45;;;20.40;86.90;;;;;;5015897;28;20065;-73
2023/06/26 05:50:29;;;;;;;14.95;10.52;;;20.60;86.60;;;;;;5014006;28;20026;-73
2023/06/26 05:52:55;;;;;;;12.32;8.57;;;20.80;86.80;;;;;;5012168;28;20026;-74
2023/06/26 05:55:21;;;;;;;11.50;7.97;;;21.10;85.60;;;;;;5014938;28;20068;-73
2023/06/26 05:57:47;;;;;;;10.13;7.00;;;21.30;83.00;;;;;;4993301;28;20172;-73
2023/06/26 06:00:16;;;;;;;10.77;7.10;;;21.50;82.50;;;;;;4992319;28;20029;-73
2023/06/26 06:02:42;;;;;;;9.93;6.40;;;21.70;82.50;;;;;;5015326;28;20036;-73
2023/06/26 06:05:08;;;;;;;9.38;6.35;;;21.90;80.60;;;;;;5011147;28;20026;-73
2023/06/26 06:07:34;;;;;;;8.75;5.93;;;22.10;79.00;;;;;;5012196;28;20065;-73
2023/06/26 06:10:01;;;;;;;8.30;6.00;;;22.30;76.10;;;;;;5011967;28;20057;-73
2023/06/26 06:12:29;;;;;;;8.38;6.32;;;22.60;75.70;;;;;;5014284;28;20332;-73
2023/06/26 06:14:56;;;;;;;9.35;5.88;;;22.90;74.30;;;;;;5015257;28;20423;-69
2023/06/26 06:17:21;;;;;;;11.25;6.30;;;23.10;73.10;;;;;;5004639;28;20030;-75
2023/06/26 06:19:47;;;;;;;9.10;6.35;;;23.40;73.20;;;;;;5009266;28;20037;-73
2023/06/26 06:22:14;;;;;;;8.93;5.80;;;23.50;73.30;;;;;;5008356;28;20030;-73
2023/06/26 06:24:39;;;;;;;8.07;5.63;;;23.70;71.80;;;;;;5014963;28;20109;-73
2023/06/26 06:27:05;;;;;;;8.20;5.90;;;23.80;71.70;;;;;;5014432;28;20356;-73
2023/06/26 06:29:31;;;;;;;10.13;6.10;;;23.80;71.70;;;;;;5014399;28;20497;-73
2023/06/26 06:31:56;;;;;;;10.27;6.10;;;23.90;70.80;;;;;;5015861;28;20029;-72
2023/06/26 06:34:22;;;;;;;8.40;5.55;;;24.10;71.20;;;;;;5014974;28;20030;-71
2023/06/26 06:36:48;;;;;;;7.93;5.55;;;24.20;70.50;;;;;;5013410;28;20101;-72
2023/06/26 06:39:14;;;;;;;8.57;5.43;;;24.30;70.00;;;;;;5012539;28;20521;-72
2023/06/26 06:41:39;;;;;;;7.93;6.03;;;24.40;70.20;;;;;;5007686;28;20047;-72
2023/06/26 06:44:05;;;;;;;9.05;5.88;;;24.40;69.70;;;;;;5005865;28;20109;-72
2023/06/26 06:46:33;;;;;;;7.95;5.68;;;24.50;70.30;;;;;;5016520;28;20038;-73
2023/06/26 06:49:04;;;;;;;7.80;5.40;;;24.70;69.50;;;;;;5010380;28;20105;-73
2023/06/26 06:51:29;;;;;;;7.85;5.43;;;24.70;68.50;;;;;;5015260;28;20112;-72
2023/06/26 06:53:55;;;;;;;7.78;5.13;;;24.80;68.60;;;;;;5014017;28;20114;-72
2023/06/26 06:56:20;;;;;;;8.52;6.10;;;24.90;68.80;;;;;;5012324;28;20117;-72
2023/06/26 06:58:46;;;;;;;8.40;5.35;;;25.00;68.20;;;;;;5016474;28;20415;-73
2023/06/26 07:01:13;;;;;;;9.43;6.15;;;25.10;67.80;;;;;;5017017;28;20030;-73
2023/06/26 07:03:39;;;;;;;12.05;6.28;;;25.10;68.20;;;;;;5016472;28;20033;-72
2023/06/26 07:06:04;;;;;;;7.15;5.32;;;25.10;68.20;;;;;;5013905;28;20026;-73
2023/06/26 07:08:30;;;;;;;9.10;5.38;;;25.20;69.10;;;;;;5014038;28;20300;-73
2023/06/26 07:10:59;;;;;;;9.10;5.63;;;25.30;68.30;;;;;;5016501;28;20022;-73
2023/06/26 07:13:24;;;;;;;10.52;5.65;;;25.40;68.80;;;;;;4989487;28;20088;-72
2023/06/26 07:15:50;;;;;;;10.25;5.93;;;25.50;66.80;;;;;;4996842;28;20035;-73
2023/06/26 07:18:16;;;;;;;12.52;5.68;;;25.60;67.70;;;;;;5011359;28;20014;-73
2023/06/26 07:20:45;;;;;;;8.73;5.63;;;25.50;67.10;;;;;;5003304;28;20030;-73
2023/06/26 07:23:10;;;;;;;7.43;5.65;;;25.60;67.10;;;;;;5016266;28;20022;-73
2023/06/26 07:25:37;;;;;;;9.60;6.03;;;25.90;67.30;;;;;;4996257;28;20430;-73
2023/06/26 07:28:12;;;;;;;11.45;5.80;;;26.50;65.40;;;;;;5015844;28;20030;-72
2023/06/26 07:30:38;;;;;;;9.05;5.95;;;26.90;64.20;;;;;;5011769;28;20038;-73
2023/06/26 07:33:04;;;;;;;9.00;6.03;;;27.10;63.80;;;;;;5014447;28;20049;-72
2023/06/26 07:35:30;;;;;;;8.10;5.57;;;27.30;64.00;;;;;;5015350;28;20022;-72
2023/06/26 07:37:55;;;;;;;7.93;5.55;;;27.50;64.00;;;;;;5010617;28;20072;-72
2023/06/26 07:40:21;;;;;;;7.85;5.82;;;27.70;63.60;;;;;;5008705;28;20026;-73
2023/06/26 07:42:47;;;;;;;8.00;5.72;;;27.90;63.30;;;;;;5013635;28;20057;-73
2023/06/26 07:45:12;;;;;;;9.23;5.68;;;27.80;63.10;;;;;;5014013;28;20045;-73
2023/06/26 07:47:39;;;;;;;9.45;5.57;;;28.30;62.70;;;;;;5012168;28;20038;-73
2023/06/26 07:50:05;;;;;;;7.53;5.43;;;28.30;62.00;;;;;;5014624;28;20022;-73
2023/06/26 07:52:30;;;;;;;8.70;5.72;;;28.40;62.20;;;;;;5014299;28;20076;-73
2023/06/26 07:54:57;;;;;;;9.25;6.13;;;28.50;61.20;;;;;;5014947;28;20485;-72
2023/06/26 07:57:22;;;;;;;9.98;6.05;;;28.60;62.10;;;;;;5015094;28;20026;-72
2023/06/26 07:59:48;;;;;;;8.40;5.43;;;29.00;60.50;;;;;;5013537;28;20037;-72
2023/06/26 08:02:14;;;;;;;8.25;5.78;;;29.20;60.90;;;;;;5015169;28;20034;-73
2023/06/26 08:04:39;;;;;;;7.75;5.70;;;29.20;60.10;;;;;;5012177;28;20034;-73
2023/06/26 08:07:05;;;;;;;7.07;5.28;;;29.30;60.00;;;;;;5013423;28;20061;-73
2023/06/26 08:09:32;;;;;;;10.02;5.75;;;29.50;60.10;;;;;;5013873;28;20022;-73
2023/06/26 08:11:58;;;;;;;6.60;5.03;;;29.70;58.70;;;;;;5018244;28;20021;-73
2023/06/26 08:14:24;;;;;;;8.48;6.20;;;29.50;58.70;;;;;;5022104;28;20041;-72
2023/06/26 08:16:50;;;;;;;10.05;5.30;;;29.30;59.80;;;;;;5016247;28;20034;-73
2023/06/26 08:19:17;;;;;;;6.93;5.18;;;29.30;59.50;;;;;;5018166;28;20014;-73
2023/06/26 08:21:44;;;;;;;8.57;5.45;;;29.50;59.40;;;;;;5016159;28;20057;-72
2023/06/26 08:24:10;;;;;;;9.45;5.55;;;29.70;59.80;;;;;;5019687;28;20026;-73
2023/06/26 08:26:37;;;;;;;9.68;5.70;;;29.90;58.40;;;;;;5017620;28;20030;-72
2023/06/26 08:29:08;;;;;;;7.10;5.07;;;29.60;59.00;;;;;;4995663;28;20439;-73
2023/06/26 08:31:37;;;;;;;9.32;5.45;;;29.70;59.40;;;;;;5016182;28;20081;-73
2023/06/26 08:34:04;;;;;;;7.90;5.50;;;29.60;58.50;;;;;;5012824;28;20026;-73
2023/06/26 08:36:30;;;;;;;9.05;5.38;;;29.90;59.00;;;;;;5014607;28;20105;-74
2023/06/26 08:38:56;;;;;;;6.85;5.18;;;30.60;58.10;;;;;;5013350;28;20029;-73
2023/06/26 08:41:22;;;;;;;10.10;5.25;;;30.60;57.80;;;;;;5016466;28;20046;-73
2023/06/26 08:43:49;;;;;;;7.43;5.40;;;30.60;57.20;;;;;;5015145;28;20022;-72
2023/06/26 08:46:14;;;;;;;7.25;5.30;;;30.80;57.00;;;;;;5016410;28;20076;-72
2023/06/26 08:48:44;;;;;;;7.78;4.97;;;30.60;57.00;;;;;;5015287;28;20022;-73
2023/06/26 08:51:12;;;;;;;9.07;5.45;;;30.50;57.60;;;;;;5015666;28;20084;-73
2023/06/26 08:54:00;;;;;;;7.13;5.32;;;30.40;57.60;;;;;;5016412;28;20058;-73
2023/06/26 08:56:32;;;;;;;8.70;5.57;;;30.90;57.10;;;;;;5004312;28;20045;-73
2023/06/26 08:58:58;;;;;;;8.75;5.65;;;31.00;56.00;;;;;;5018971;28;20026;-73
2023/06/26 09:01:24;;;;;;;8.30;5.32;;;31.10;56.70;;;;;;5018211;28;20465;-73
2023/06/26 09:03:51;;;;;;;9.02;5.28;;;31.40;56.70;;;;;;5016485;28;20076;-72
2023/06/26 09:06:18;;;;;;;6.85;5.32;;;31.80;55.80;;;;;;5016862;28;20105;-73
2023/06/26 09:08:44;;;;;;;7.55;5.32;;;31.20;56.10;;;;;;5007679;28;20022;-73
2023/06/26 09:11:09;;;;;;;12.05;5.70;;;31.50;56.90;;;;;;5008991;28;20037;-73
2023/06/26 09:13:35;;;;;;;9.77;5.22;;;32.20;55.10;;;;;;5004156;28;20033;-73
2023/06/26 09:16:07;;;;;;;7.90;5.20;;;32.00;55.30;;;;;;5017592;28;20100;-73
2023/06/26 09:18:33;;;;;;;6.85;5.07;;;32.10;55.30;;;;;;5015617;28;20029;-73
2023/06/26 09:20:59;;;;;;;8.60;5.45;;;32.20;54.40;;;;;;5011817;28;20423;-72
2023/06/26 09:23:25;;;;;;;7.50;5.38;;;32.30;55.00;;;;;;5015846;28;20033;-72
2023/06/26 09:25:51;;;;;;;8.43;5.55;;;31.50;55.70;;;;;;5017382;28;20022;-72
2023/06/26 09:28:17;;;;;;;8.43;5.38;;;31.50;55.00;;;;;;4995735;28;20330;-72
2023/06/26 09:30:46;;;;;;;7.75;5.38;;;31.30;55.20;;;;;;5017124;28;20029;-72
2023/06/26 09:33:16;;;;;;;7.47;5.10;;;31.70;55.90;;;;;;5009254;28;20438;-72
2023/06/26 09:35:46;;;;;;;10.98;5.47;;;31.90;54.20;;;;;;5004173;28;20026;-72
2023/06/26 09:38:15;;;;;;;7.32;5.38;;;32.40;54.70;;;;;;5016711;28;20068;-71
2023/06/26 09:40:41;;;;;;;9.68;5.68;;;32.70;54.10;;;;;;5016386;28;20025;-73
2023/06/26 09:43:09;;;;;;;8.90;5.68;;;32.70;53.10;;;;;;5018100;28;20044;-73
2023/06/26 09:45:44;;;;;;;11.48;5.07;;;32.80;53.70;;;;;;5000755;28;20071;-74
2023/06/26 09:48:11;;;;;;;9.50;5.28;;;33.00;52.20;;;;;;5013569;28;20066;-73
2023/06/26 09:50:41;;;;;;;8.10;5.38;;;32.80;53.10;;;;;;5003710;28;20038;-72
2023/06/26 09:53:15;;;;;;;9.48;5.40;;;31.90;54.10;;;;;;5011668;28;20446;-72
2023/06/26 09:55:47;;;;;;;7.30;5.32;;;31.20;55.90;;;;;;5017923;28;20133;-72
2023/06/26 09:58:17;;;;;;;8.88;5.57;;;32.20;53.60;;;;;;5017893;28;20022;-72
2023/06/26 10:00:43;;;;;;;11.65;5.32;;;32.80;51.90;;;;;;5009272;28;20022;-73
2023/06/26 10:03:10;;;;;;;10.38;5.57;;;33.10;52.10;;;;;;5007985;28;20435;-72
2023/06/26 10:05:35;;;;;;;7.30;5.35;;;33.00;52.30;;;;;;5008313;28;20083;-72
2023/06/26 10:08:02;;;;;;;8.32;5.70;;;33.40;51.40;;;;;;5007297;28;20422;-71
2023/06/26 10:10:29;;;;;;;9.65;5.93;;;33.50;52.40;;;;;;5011139;28;20025;-74
2023/06/26 10:13:11;;;;;;;8.20;5.80;;;32.60;53.70;;;;;;5013386;28;20037;-72
2023/06/26 10:15:37;;;;;;;9.32;5.32;;;31.80;53.50;;;;;;5010495;28;20036;-72
2023/06/26 10:18:04;;;;;;;8.88;5.40;;;32.00;54.50;;;;;;5015604;28;20026;-72
2023/06/26 10:20:30;;;;;;;9.30;5.50;;;32.30;54.00;;;;;;5014871;28;20047;-72
2023/06/26 10:23:00;;;;;;;7.07;5.63;;;32.60;53.40;;;;;;5008826;28;20057;-73
2023/06/26 10:25:26;;;;;;;17.38;6.30;;;33.00;53.90;;;;;;5004479;28;20060;-73
2023/06/26 10:27:58;;;;;;;8.70;5.10;;;33.90;51.30;;;;;;5016294;28;20080;-72
2023/06/26 10:30:28;;;;;;;7.93;5.28;;;33.90;50.30;;;;;;5011914;28;20026;-72
2023/06/26 10:32:55;;;;;;;8.82;5.60;;;33.40;52.00;;;;;;5014504;28;20041;-72
2023/06/26 10:35:21;;;;;;;7.55;5.75;;;33.60;51.60;;;;;;5010761;28;20034;-72
2023/06/26 10:37:49;;;;;;;9.55;5.82;;;33.00;51.30;;;;;;5012088;28;20418;-72
2023/06/26 10:40:25;;;;;;;7.80;5.90;;;31.70;52.90;;;;;;5009735;28;20038;-72
2023/06/26 10:43:04;;;;;;;7.45;5.57;;;31.60;53.40;;;;;;5007922;28;20447;-72
2023/06/26 10:45:30;;;;;;;8.23;5.78;;;31.70;53.20;;;;;;5010713;28;20370;-72
2023/06/26 10:47:57;;;;;;;8.05;5.50;;;32.00;52.60;;;;;;5014740;28;20022;-72
2023/06/26 10:50:28;;;;;;;8.70;6.10;;;32.20;53.80;;;;;;5004477;28;20060;-72
2023/06/26 10:53:20;;;;;;;8.95;6.00;;;31.90;53.40;;;;;;5013699;28;20493;-72
2023/06/26 10:55:59;;;;;;;8.25;5.70;;;31.60;53.70;;;;;;5013148;28;20030;-72
2023/06/26 10:58:31;;;;;;;8.25;5.95;;;32.30;53.60;;;;;;5016128;28;20087;-72
2023/06/26 11:01:14;;;;;;;10.07;6.40;;;32.10;53.30;;;;;;5012328;28;20021;-72
2023/06/26 11:03:41;;;;;;;8.05;6.13;;;31.40;54.60;;;;;;5012144;28;20037;-72
2023/06/26 11:06:14;;;;;;;8.20;6.80;;;31.40;54.60;;;;;;5012995;28;20153;-72
2023/06/26 11:08:47;;;;;;;9.05;6.28;;;31.50;54.80;;;;;;5004385;28;20141;-72
2023/06/26 11:11:13;;;;;;;;;;;32.00;55.20;;;;;;5012795;28;20030;-72
2023/06/26 11:13:40;;;;;;;13.20;6.30;;;31.80;55.90;;;;;;5007218;28;20310;-72
2023/06/26 11:16:05;;;;;;;8.30;5.82;;;31.20;57.70;;;;;;5007893;28;20026;-73
2023/06/26 11:18:32;;;;;;;9.55;6.88;;;31.70;57.60;;;;;;5009035;28;20033;-72
2023/06/26 11:21:15;;;;;;;10.45;6.60;;;31.80;55.90;;;;;;5007427;28;20033;-72
2023/06/26 11:23:41;;;;;;;8.18;6.78;;;31.50;55.40;;;;;;5012824;28;20038;-72
2023/06/26 11:26:18;;;;;;;10.48;7.18;;;30.90;57.40;;;;;;5012010;28;20041;-72
2023/06/26 11:28:48;;;;;;;9.75;6.60;;;30.90;56.20;;;;;;5015821;28;20295;-72
2023/06/26 11:31:44;;;;;;;8.48;6.60;;;30.90;57.40;;;;;;5015062;28;20480;-72
2023/06/26 11:34:11;;;;;;;8.25;6.25;;;31.50;56.00;;;;;;5013923;28;20030;-72
2023/06/26 11:36:42;;;;;;;9.02;6.72;;;31.40;56.00;;;;;;5013973;28;20357;-72
2023/06/26 11:39:07;;;;;;;8.32;6.45;;;32.00;55.30;;;;;;5009755;28;20485;-72
2023/06/26 11:41:37;;;;;;;7.72;6.30;;;32.20;56.10;;;;;;5014887;28;20045;-72
2023/06/26 11:44:04;;;;;;;9.00;6.75;;;32.20;55.90;;;;;;5014148;28;20026;-72
2023/06/26 11:46:30;;;;;;;10.43;6.78;;;32.30;56.30;;;;;;5012666;28;20033;-72
2023/06/26 11:48:56;;;;;;;9.68;7.10;;;32.10;57.20;;;;;;5001064;28;20041;-72
2023/06/26 11:51:21;;;;;;;9.20;6.95;;;31.20;58.30;;;;;;4999710;28;20422;-72
2023/06/26 11:53:48;;;;;;;10.27;6.88;;;31.50;59.30;;;;;;5012640;28;20041;-72
2023/06/26 11:56:15;;;;;;;10.02;7.00;;;32.30;59.10;;;;;;5015346;28;20101;-72
2023/06/26 11:59:02;;;;;;;13.90;7.20;;;32.00;58.10;;;;;;5014863;28;20017;-72
2023/06/26 12:01:35;;;;;;;8.02;6.60;;;31.30;59.10;;;;;;5015415;28;20021;-72
2023/06/26 12:04:03;;;;;;;8.30;6.60;;;31.00;59.60;;;;;;5013005;28;20026;-72
2023/06/26 12:06:36;;;;;;;10.80;7.30;;;30.50;60.20;;;;;;5007606;28;20041;-72
2023/06/26 12:09:05;;;;;;;8.93;7.13;;;29.80;60.40;;;;;;5008522;28;20060;-72
2023/06/26 12:11:32;;;;;;;10.70;6.95;;;29.50;61.40;;;;;;4998525;28;20061;-72
2023/06/26 12:13:58;;;;;;;10.75;6.80;;;29.70;61.10;;;;;;5011809;28;20057;-72
2023/06/26 12:16:25;;;;;;;8.02;6.10;;;30.60;58.90;;;;;;5014850;28;20037;-72
2023/06/26 12:18:51;;;;;;;8.43;6.50;;;31.00;58.10;;;;;;5014899;28;20327;-72
2023/06/26 12:21:52;;;;;;;10.10;6.55;;;31.30;56.70;;;;;;5014834;28;20105;-72
2023/06/26 12:24:20;;;;;;;9.48;6.65;;;32.00;57.90;;;;;;4972692;28;20048;-71
2023/06/26 12:26:51;;;;;;;8.65;6.07;;;32.50;55.60;;;;;;5012356;28;20073;-72
2023/06/26 12:29:18;;;;;;;11.82;6.60;;;32.00;56.40;;;;;;4995359;28;20307;-71
2023/06/26 12:31:51;;;;;;;8.75;6.90;;;32.50;56.70;;;;;;5015108;28;20068;-72
2023/06/26 12:34:19;;;;;;;10.93;6.90;;;31.60;56.90;;;;;;5011680;28;20980;-72
2023/06/26 12:36:52;;;;;;;9.60;6.60;;;31.00;59.20;;;;;;5013599;28;20056;-72
2023/06/26 12:39:21;;;;;;;11.68;7.60;;;30.60;60.90;;;;;;5011406;28;20018;-72
2023/06/26 12:41:53;;;;;;;15.20;7.28;;;30.20;61.70;;;;;;5012182;28;20203;-72